sensor_id;sensor_type;location;lat;lon;timestamp;P1;durP1;ratioP1;P2;durP2;ratioP2
6977;SDS011;3529;53.244;10.414;2022-07-19T00:00:31;2.55;;;2.20;;
6977;SDS011;3529;53.244;10.414;2022-07-19T00:02:56;1.88;;;1.77;;
6977;SDS011;3529;53.244;10.414;2022-07-19T00:05:22;1.75;;;1.65;;
6977;SDS011;3529;53.244;10.414;2022-07-19T00:07:48;1.48;;;1.48;;
6977;SDS011;3529;53.244;10.414;2022-07-19T00:10:14;1.58;;;1.48;;
6977;SDS011;3529;53.244;10.414;2022-07-19T00:12:41;1.58;;;1.48;;
6977;SDS011;3529;53.244;10.414;2022-07-19T00:15:08;1.60;;;1.50;;
6977;SDS011;3529;53.244;10.414;2022-07-19T00:17:38;1.30;;;1.30;;
6977;SDS011;3529;53.244;10.414;2022-07-19T00:20:10;3.25;;;2.13;;
6977;SDS011;3529;53.244;10.414;2022-07-19T00:22:38;1.02;;;1.02;;
6977;SDS011;3529;53.244;10.414;2022-07-19T00:25:04;1.60;;;1.50;;
6977;SDS011;3529;53.244;10.414;2022-07-19T00:27:30;1.40;;;1.30;;
6977;SDS011;3529;53.244;10.414;2022-07-19T00:29:56;1.20;;;1.20;;
6977;SDS011;3529;53.244;10.414;2022-07-19T00:32:21;2.28;;;1.83;;
6977;SDS011;3529;53.244;10.414;2022-07-19T00:34:47;1.95;;;1.77;;
6977;SDS011;3529;53.244;10.414;2022-07-19T00:37:12;1.38;;;1.35;;
6977;SDS011;3529;53.244;10.414;2022-07-19T00:39:38;1.42;;;1.42;;
6977;SDS011;3529;53.244;10.414;2022-07-19T00:42:04;2.60;;;1.77;;
6977;SDS011;3529;53.244;10.414;2022-07-19T00:44:29;1.17;;;1.17;;
6977;SDS011;3529;53.244;10.414;2022-07-19T00:46:55;2.58;;;1.95;;
6977;SDS011;3529;53.244;10.414;2022-07-19T00:49:21;1.60;;;1.50;;
6977;SDS011;3529;53.244;10.414;2022-07-19T00:51:47;1.83;;;1.30;;
6977;SDS011;3529;53.244;10.414;2022-07-19T00:54:18;2.00;;;1.75;;
6977;SDS011;3529;53.244;10.414;2022-07-19T00:56:44;1.70;;;1.60;;
6977;SDS011;3529;53.244;10.414;2022-07-19T00:59:13;1.58;;;1.48;;
6977;SDS011;3529;53.244;10.414;2022-07-19T01:01:39;1.23;;;1.23;;
6977;SDS011;3529;53.244;10.414;2022-07-19T01:04:05;1.98;;;1.88;;
6977;SDS011;3529;53.244;10.414;2022-07-19T01:06:31;3.70;;;1.58;;
6977;SDS011;3529;53.244;10.414;2022-07-19T01:08:57;2.55;;;1.83;;
6977;SDS011;3529;53.244;10.414;2022-07-19T01:11:22;1.42;;;1.33;;
6977;SDS011;3529;53.244;10.414;2022-07-19T01:13:48;1.77;;;1.65;;
6977;SDS011;3529;53.244;10.414;2022-07-19T01:16:14;1.63;;;1.52;;
6977;SDS011;3529;53.244;10.414;2022-07-19T01:18:40;1.70;;;1.60;;
6977;SDS011;3529;53.244;10.414;2022-07-19T01:21:06;1.55;;;1.48;;
6977;SDS011;3529;53.244;10.414;2022-07-19T01:23:32;1.48;;;1.48;;
6977;SDS011;3529;53.244;10.414;2022-07-19T01:25:58;1.65;;;1.55;;
6977;SDS011;3529;53.244;10.414;2022-07-19T01:28:24;1.73;;;1.63;;
6977;SDS011;3529;53.244;10.414;2022-07-19T01:30:49;1.90;;;1.77;;
6977;SDS011;3529;53.244;10.414;2022-07-19T01:33:18;1.25;;;1.25;;
6977;SDS011;3529;53.244;10.414;2022-07-19T01:35:43;1.20;;;1.20;;
6977;SDS011;3529;53.244;10.414;2022-07-19T01:38:09;2.33;;;1.75;;
6977;SDS011;3529;53.244;10.414;2022-07-19T01:40:35;1.50;;;1.48;;
6977;SDS011;3529;53.244;10.414;2022-07-19T01:43:00;1.77;;;1.67;;
6977;SDS011;3529;53.244;10.414;2022-07-19T01:45:26;1.50;;;1.40;;
6977;SDS011;3529;53.244;10.414;2022-07-19T01:47:52;1.40;;;1.40;;
6977;SDS011;3529;53.244;10.414;2022-07-19T01:50:18;1.33;;;1.33;;
6977;SDS011;3529;53.244;10.414;2022-07-19T01:52:44;1.73;;;1.63;;
6977;SDS011;3529;53.244;10.414;2022-07-19T01:55:10;1.58;;;1.48;;
6977;SDS011;3529;53.244;10.414;2022-07-19T01:57:35;1.60;;;1.50;;
6977;SDS011;3529;53.244;10.414;2022-07-19T02:00:02;1.63;;;1.52;;
6977;SDS011;3529;53.244;10.414;2022-07-19T02:02:29;1.20;;;1.20;;
6977;SDS011;3529;53.244;10.414;2022-07-19T02:04:54;1.67;;;1.58;;
6977;SDS011;3529;53.244;10.414;2022-07-19T02:07:20;1.42;;;1.42;;
6977;SDS011;3529;53.244;10.414;2022-07-19T02:09:45;1.88;;;1.77;;
6977;SDS011;3529;53.244;10.414;2022-07-19T02:12:11;1.38;;;1.38;;
6977;SDS011;3529;53.244;10.414;2022-07-19T02:14:36;1.77;;;1.67;;
6977;SDS011;3529;53.244;10.414;2022-07-19T02:17:02;1.63;;;1.52;;
6977;SDS011;3529;53.244;10.414;2022-07-19T02:19:28;1.60;;;1.50;;
6977;SDS011;3529;53.244;10.414;2022-07-19T02:21:53;1.20;;;1.20;;
6977;SDS011;3529;53.244;10.414;2022-07-19T02:24:19;1.98;;;1.83;;
6977;SDS011;3529;53.244;10.414;2022-07-19T02:26:44;1.95;;;1.85;;
6977;SDS011;3529;53.244;10.414;2022-07-19T02:29:10;2.03;;;1.92;;
6977;SDS011;3529;53.244;10.414;2022-07-19T02:31:36;1.30;;;1.30;;
6977;SDS011;3529;53.244;10.414;2022-07-19T02:34:01;2.13;;;2.03;;
6977;SDS011;3529;53.244;10.414;2022-07-19T02:36:27;2.30;;;2.20;;
6977;SDS011;3529;53.244;10.414;2022-07-19T02:38:53;1.77;;;1.67;;
6977;SDS011;3529;53.244;10.414;2022-07-19T02:41:18;3.03;;;2.10;;
6977;SDS011;3529;53.244;10.414;2022-07-19T02:43:44;3.35;;;2.17;;
6977;SDS011;3529;53.244;10.414;2022-07-19T02:46:10;1.52;;;1.52;;
6977;SDS011;3529;53.244;10.414;2022-07-19T02:48:35;1.38;;;1.38;;
6977;SDS011;3529;53.244;10.414;2022-07-19T02:51:01;1.42;;;1.40;;
6977;SDS011;3529;53.244;10.414;2022-07-19T02:53:26;1.75;;;1.65;;
6977;SDS011;3529;53.244;10.414;2022-07-19T02:55:52;1.80;;;1.70;;
6977;SDS011;3529;53.244;10.414;2022-07-19T02:58:18;2.00;;;1.90;;
6977;SDS011;3529;53.244;10.414;2022-07-19T03:00:44;1.60;;;1.50;;
6977;SDS011;3529;53.244;10.414;2022-07-19T03:03:10;2.00;;;1.90;;
6977;SDS011;3529;53.244;10.414;2022-07-19T03:05:55;1.52;;;1.50;;
6977;SDS011;3529;53.244;10.414;2022-07-19T03:08:21;1.55;;;1.55;;
6977;SDS011;3529;53.244;10.414;2022-07-19T03:10:47;1.85;;;1.75;;
6977;SDS011;3529;53.244;10.414;2022-07-19T03:13:12;1.30;;;1.30;;
6977;SDS011;3529;53.244;10.414;2022-07-19T03:15:38;1.65;;;1.55;;
6977;SDS011;3529;53.244;10.414;2022-07-19T03:18:04;1.10;;;1.10;;
6977;SDS011;3529;53.244;10.414;2022-07-19T03:20:29;2.03;;;1.92;;
6977;SDS011;3529;53.244;10.414;2022-07-19T03:22:55;1.35;;;1.35;;
6977;SDS011;3529;53.244;10.414;2022-07-19T03:25:21;1.77;;;1.67;;
6977;SDS011;3529;53.244;10.414;2022-07-19T03:27:46;1.80;;;1.70;;
6977;SDS011;3529;53.244;10.414;2022-07-19T03:30:13;1.75;;;1.65;;
6977;SDS011;3529;53.244;10.414;2022-07-19T03:32:39;1.30;;;1.30;;
6977;SDS011;3529;53.244;10.414;2022-07-19T03:35:05;1.20;;;1.20;;
6977;SDS011;3529;53.244;10.414;2022-07-19T03:37:31;1.23;;;1.23;;
6977;SDS011;3529;53.244;10.414;2022-07-19T03:39:56;1.23;;;1.23;;
6977;SDS011;3529;53.244;10.414;2022-07-19T03:42:22;1.25;;;1.25;;
6977;SDS011;3529;53.244;10.414;2022-07-19T03:44:47;1.55;;;1.45;;
6977;SDS011;3529;53.244;10.414;2022-07-19T03:47:13;1.30;;;1.30;;
6977;SDS011;3529;53.244;10.414;2022-07-19T03:49:38;2.00;;;1.90;;
6977;SDS011;3529;53.244;10.414;2022-07-19T03:52:04;1.70;;;1.60;;
6977;SDS011;3529;53.244;10.414;2022-07-19T03:54:30;1.33;;;1.33;;
6977;SDS011;3529;53.244;10.414;2022-07-19T03:56:55;1.35;;;1.33;;
6977;SDS011;3529;53.244;10.414;2022-07-19T03:59:21;1.30;;;1.30;;
6977;SDS011;3529;53.244;10.414;2022-07-19T04:01:48;1.70;;;1.60;;
6977;SDS011;3529;53.244;10.414;2022-07-19T04:04:14;1.50;;;1.40;;
6977;SDS011;3529;53.244;10.414;2022-07-19T04:06:39;1.85;;;1.55;;
6977;SDS011;3529;53.244;10.414;2022-07-19T04:09:05;1.50;;;1.50;;
6977;SDS011;3529;53.244;10.414;2022-07-19T04:11:31;1.70;;;1.60;;
6977;SDS011;3529;53.244;10.414;2022-07-19T04:13:56;1.27;;;1.27;;
6977;SDS011;3529;53.244;10.414;2022-07-19T04:16:22;1.48;;;1.40;;
6977;SDS011;3529;53.244;10.414;2022-07-19T04:18:48;2.58;;;1.70;;
6977;SDS011;3529;53.244;10.414;2022-07-19T04:21:13;2.13;;;1.92;;
6977;SDS011;3529;53.244;10.414;2022-07-19T04:23:39;1.88;;;1.60;;
6977;SDS011;3529;53.244;10.414;2022-07-19T04:26:05;2.35;;;2.15;;
6977;SDS011;3529;53.244;10.414;2022-07-19T04:28:30;1.67;;;1.52;;
6977;SDS011;3529;53.244;10.414;2022-07-19T04:30:56;2.33;;;2.13;;
6977;SDS011;3529;53.244;10.414;2022-07-19T04:33:22;5.10;;;1.85;;
6977;SDS011;3529;53.244;10.414;2022-07-19T04:35:47;1.85;;;1.75;;
6977;SDS011;3529;53.244;10.414;2022-07-19T04:38:13;1.77;;;1.52;;
6977;SDS011;3529;53.244;10.414;2022-07-19T04:40:39;2.10;;;1.80;;
6977;SDS011;3529;53.244;10.414;2022-07-19T04:43:04;1.33;;;1.33;;
6977;SDS011;3529;53.244;10.414;2022-07-19T04:45:30;3.83;;;1.30;;
6977;SDS011;3529;53.244;10.414;2022-07-19T04:47:56;1.70;;;1.60;;
6977;SDS011;3529;53.244;10.414;2022-07-19T04:50:22;1.33;;;1.25;;
6977;SDS011;3529;53.244;10.414;2022-07-19T04:52:47;2.15;;;1.95;;
6977;SDS011;3529;53.244;10.414;2022-07-19T04:55:13;2.92;;;2.05;;
6977;SDS011;3529;53.244;10.414;2022-07-19T04:57:39;1.73;;;1.63;;
6977;SDS011;3529;53.244;10.414;2022-07-19T05:00:06;1.52;;;1.42;;
6977;SDS011;3529;53.244;10.414;2022-07-19T05:02:36;1.83;;;1.67;;
6977;SDS011;3529;53.244;10.414;2022-07-19T05:05:03;1.60;;;1.48;;
6977;SDS011;3529;53.244;10.414;2022-07-19T05:07:29;1.83;;;1.73;;
6977;SDS011;3529;53.244;10.414;2022-07-19T05:09:55;1.77;;;1.67;;
6977;SDS011;3529;53.244;10.414;2022-07-19T05:12:21;1.73;;;1.63;;
6977;SDS011;3529;53.244;10.414;2022-07-19T05:14:47;1.73;;;1.63;;
6977;SDS011;3529;53.244;10.414;2022-07-19T05:17:13;1.55;;;1.45;;
6977;SDS011;3529;53.244;10.414;2022-07-19T05:19:40;3.33;;;1.52;;
6977;SDS011;3529;53.244;10.414;2022-07-19T05:22:05;2.08;;;1.98;;
6977;SDS011;3529;53.244;10.414;2022-07-19T05:24:31;1.27;;;1.27;;
6977;SDS011;3529;53.244;10.414;2022-07-19T05:26:57;1.65;;;1.55;;
6977;SDS011;3529;53.244;10.414;2022-07-19T05:29:22;1.20;;;1.20;;
6977;SDS011;3529;53.244;10.414;2022-07-19T05:31:48;2.03;;;1.92;;
6977;SDS011;3529;53.244;10.414;2022-07-19T05:34:13;1.80;;;1.65;;
6977;SDS011;3529;53.244;10.414;2022-07-19T05:36:39;1.60;;;1.50;;
6977;SDS011;3529;53.244;10.414;2022-07-19T05:39:05;1.58;;;1.48;;
6977;SDS011;3529;53.244;10.414;2022-07-19T05:41:30;1.33;;;1.30;;
6977;SDS011;3529;53.244;10.414;2022-07-19T05:43:56;1.73;;;1.63;;
6977;SDS011;3529;53.244;10.414;2022-07-19T05:46:22;2.05;;;1.40;;
6977;SDS011;3529;53.244;10.414;2022-07-19T05:48:47;2.03;;;1.83;;
6977;SDS011;3529;53.244;10.414;2022-07-19T05:51:13;1.15;;;1.15;;
6977;SDS011;3529;53.244;10.414;2022-07-19T05:53:39;1.65;;;1.55;;
6977;SDS011;3529;53.244;10.414;2022-07-19T05:56:05;1.83;;;1.65;;
6977;SDS011;3529;53.244;10.414;2022-07-19T05:58:31;1.80;;;1.70;;
6977;SDS011;3529;53.244;10.414;2022-07-19T06:00:57;1.90;;;1.77;;
6977;SDS011;3529;53.244;10.414;2022-07-19T06:03:41;1.65;;;1.55;;
6977;SDS011;3529;53.244;10.414;2022-07-19T06:06:07;1.50;;;1.40;;
6977;SDS011;3529;53.244;10.414;2022-07-19T06:08:32;2.35;;;1.98;;
6977;SDS011;3529;53.244;10.414;2022-07-19T06:10:58;1.83;;;1.73;;
6977;SDS011;3529;53.244;10.414;2022-07-19T06:13:24;1.52;;;1.42;;
6977;SDS011;3529;53.244;10.414;2022-07-19T06:15:50;2.67;;;1.73;;
6977;SDS011;3529;53.244;10.414;2022-07-19T06:18:16;1.58;;;1.50;;
6977;SDS011;3529;53.244;10.414;2022-07-19T06:20:42;2.80;;;1.67;;
6977;SDS011;3529;53.244;10.414;2022-07-19T06:23:07;1.20;;;1.20;;
6977;SDS011;3529;53.244;10.414;2022-07-19T06:25:33;1.40;;;1.30;;
6977;SDS011;3529;53.244;10.414;2022-07-19T06:27:58;2.40;;;1.40;;
6977;SDS011;3529;53.244;10.414;2022-07-19T06:30:24;2.03;;;1.80;;
6977;SDS011;3529;53.244;10.414;2022-07-19T06:32:50;1.40;;;1.35;;
6977;SDS011;3529;53.244;10.414;2022-07-19T06:35:15;1.90;;;1.65;;
6977;SDS011;3529;53.244;10.414;2022-07-19T06:37:41;1.83;;;1.73;;
6977;SDS011;3529;53.244;10.414;2022-07-19T06:40:07;1.77;;;1.67;;
6977;SDS011;3529;53.244;10.414;2022-07-19T06:42:32;2.42;;;1.83;;
6977;SDS011;3529;53.244;10.414;2022-07-19T06:44:59;1.92;;;1.73;;
6977;SDS011;3529;53.244;10.414;2022-07-19T06:47:27;1.48;;;1.38;;
6977;SDS011;3529;53.244;10.414;2022-07-19T06:49:53;1.73;;;1.63;;
6977;SDS011;3529;53.244;10.414;2022-07-19T06:52:18;1.70;;;1.60;;
6977;SDS011;3529;53.244;10.414;2022-07-19T06:54:44;1.58;;;1.48;;
6977;SDS011;3529;53.244;10.414;2022-07-19T06:57:10;1.60;;;1.50;;
6977;SDS011;3529;53.244;10.414;2022-07-19T06:59:35;1.27;;;1.27;;
6977;SDS011;3529;53.244;10.414;2022-07-19T07:02:01;1.70;;;1.60;;
6977;SDS011;3529;53.244;10.414;2022-07-19T07:04:29;2.13;;;1.90;;
6977;SDS011;3529;53.244;10.414;2022-07-19T07:06:54;2.03;;;1.92;;
6977;SDS011;3529;53.244;10.414;2022-07-19T07:09:20;1.52;;;1.40;;
6977;SDS011;3529;53.244;10.414;2022-07-19T07:11:46;3.58;;;1.83;;
6977;SDS011;3529;53.244;10.414;2022-07-19T07:14:11;2.33;;;1.83;;
6977;SDS011;3529;53.244;10.414;2022-07-19T07:16:37;1.38;;;1.35;;
6977;SDS011;3529;53.244;10.414;2022-07-19T07:19:02;1.98;;;1.75;;
6977;SDS011;3529;53.244;10.414;2022-07-19T07:21:28;1.60;;;1.50;;
6977;SDS011;3529;53.244;10.414;2022-07-19T07:23:55;1.70;;;1.60;;
6977;SDS011;3529;53.244;10.414;2022-07-19T07:26:20;1.80;;;1.70;;
6977;SDS011;3529;53.244;10.414;2022-07-19T07:28:46;1.58;;;1.48;;
6977;SDS011;3529;53.244;10.414;2022-07-19T07:31:11;3.65;;;1.67;;
6977;SDS011;3529;53.244;10.414;2022-07-19T07:33:37;1.75;;;1.65;;
6977;SDS011;3529;53.244;10.414;2022-07-19T07:36:03;1.35;;;1.25;;
6977;SDS011;3529;53.244;10.414;2022-07-19T07:38:28;4.00;;;1.92;;
6977;SDS011;3529;53.244;10.414;2022-07-19T07:40:54;1.30;;;1.20;;
6977;SDS011;3529;53.244;10.414;2022-07-19T07:43:21;1.85;;;1.52;;
6977;SDS011;3529;53.244;10.414;2022-07-19T07:45:46;1.85;;;1.42;;
6977;SDS011;3529;53.244;10.414;2022-07-19T07:48:12;1.90;;;1.80;;
6977;SDS011;3529;53.244;10.414;2022-07-19T07:50:38;0.80;;;0.80;;
6977;SDS011;3529;53.244;10.414;2022-07-19T07:53:03;1.88;;;1.40;;
6977;SDS011;3529;53.244;10.414;2022-07-19T07:55:29;1.60;;;1.50;;
6977;SDS011;3529;53.244;10.414;2022-07-19T07:57:54;1.25;;;1.00;;
6977;SDS011;3529;53.244;10.414;2022-07-19T08:00:20;1.52;;;1.08;;
6977;SDS011;3529;53.244;10.414;2022-07-19T08:02:46;0.77;;;0.77;;
6977;SDS011;3529;53.244;10.414;2022-07-19T08:05:14;1.00;;;1.00;;
6977;SDS011;3529;53.244;10.414;2022-07-19T08:07:39;1.35;;;1.25;;
6977;SDS011;3529;53.244;10.414;2022-07-19T08:10:06;0.68;;;0.68;;
6977;SDS011;3529;53.244;10.414;2022-07-19T08:12:33;1.00;;;0.90;;
6977;SDS011;3529;53.244;10.414;2022-07-19T08:14:58;1.13;;;1.02;;
6977;SDS011;3529;53.244;10.414;2022-07-19T08:17:24;1.25;;;1.05;;
6977;SDS011;3529;53.244;10.414;2022-07-19T08:19:50;1.08;;;1.08;;
6977;SDS011;3529;53.244;10.414;2022-07-19T08:22:16;1.13;;;0.95;;
6977;SDS011;3529;53.244;10.414;2022-07-19T08:24:43;0.82;;;0.82;;
6977;SDS011;3529;53.244;10.414;2022-07-19T08:27:10;1.02;;;0.85;;
6977;SDS011;3529;53.244;10.414;2022-07-19T08:29:36;1.63;;;0.93;;
6977;SDS011;3529;53.244;10.414;2022-07-19T08:32:02;0.70;;;0.70;;
6977;SDS011;3529;53.244;10.414;2022-07-19T08:34:28;0.90;;;0.85;;
6977;SDS011;3529;53.244;10.414;2022-07-19T08:36:53;0.75;;;0.75;;
6977;SDS011;3529;53.244;10.414;2022-07-19T08:39:19;0.95;;;0.95;;
6977;SDS011;3529;53.244;10.414;2022-07-19T08:41:45;1.17;;;0.90;;
6977;SDS011;3529;53.244;10.414;2022-07-19T08:44:11;0.90;;;0.90;;
6977;SDS011;3529;53.244;10.414;2022-07-19T08:46:40;0.85;;;0.85;;
6977;SDS011;3529;53.244;10.414;2022-07-19T08:49:06;3.28;;;1.00;;
6977;SDS011;3529;53.244;10.414;2022-07-19T08:51:33;2.00;;;1.00;;
6977;SDS011;3529;53.244;10.414;2022-07-19T08:53:59;0.88;;;0.82;;
6977;SDS011;3529;53.244;10.414;2022-07-19T08:56:26;0.75;;;0.75;;
6977;SDS011;3529;53.244;10.414;2022-07-19T08:59:10;1.00;;;0.93;;
6977;SDS011;3529;53.244;10.414;2022-07-19T09:01:36;1.08;;;0.85;;
6977;SDS011;3529;53.244;10.414;2022-07-19T09:06:36;3.55;;;0.88;;
6977;SDS011;3529;53.244;10.414;2022-07-19T09:09:07;1.60;;;1.27;;
6977;SDS011;3529;53.244;10.414;2022-07-19T09:11:40;0.70;;;0.70;;
6977;SDS011;3529;53.244;10.414;2022-07-19T09:14:17;1.02;;;0.98;;
6977;SDS011;3529;53.244;10.414;2022-07-19T09:19:35;0.98;;;0.98;;
6977;SDS011;3529;53.244;10.414;2022-07-19T09:22:12;0.80;;;0.80;;
6977;SDS011;3529;53.244;10.414;2022-07-19T09:24:47;1.20;;;0.82;;
6977;SDS011;3529;53.244;10.414;2022-07-19T09:27:18;0.80;;;0.80;;
6977;SDS011;3529;53.244;10.414;2022-07-19T09:29:49;1.35;;;1.08;;
6977;SDS011;3529;53.244;10.414;2022-07-19T09:32:18;1.23;;;1.13;;
6977;SDS011;3529;53.244;10.414;2022-07-19T09:34:52;0.90;;;0.90;;
6977;SDS011;3529;53.244;10.414;2022-07-19T09:37:21;0.95;;;0.65;;
6977;SDS011;3529;53.244;10.414;2022-07-19T09:39:49;0.93;;;0.90;;
6977;SDS011;3529;53.244;10.414;2022-07-19T09:42:19;1.00;;;0.95;;
6977;SDS011;3529;53.244;10.414;2022-07-19T09:44:46;0.60;;;0.60;;
6977;SDS011;3529;53.244;10.414;2022-07-19T09:47:32;1.10;;;0.90;;
6977;SDS011;3529;53.244;10.414;2022-07-19T09:50:03;0.88;;;0.88;;
6977;SDS011;3529;53.244;10.414;2022-07-19T09:52:31;0.80;;;0.80;;
6977;SDS011;3529;53.244;10.414;2022-07-19T09:54:59;1.05;;;1.02;;
6977;SDS011;3529;53.244;10.414;2022-07-19T09:57:27;0.80;;;0.80;;
6977;SDS011;3529;53.244;10.414;2022-07-19T09:59:53;1.35;;;1.25;;
6977;SDS011;3529;53.244;10.414;2022-07-19T10:02:23;1.02;;;1.00;;
6977;SDS011;3529;53.244;10.414;2022-07-19T10:04:50;0.73;;;0.73;;
6977;SDS011;3529;53.244;10.414;2022-07-19T10:07:16;0.98;;;0.93;;
6977;SDS011;3529;53.244;10.414;2022-07-19T10:09:43;0.47;;;0.47;;
6977;SDS011;3529;53.244;10.414;2022-07-19T10:12:10;1.00;;;1.00;;
6977;SDS011;3529;53.244;10.414;2022-07-19T10:14:37;1.15;;;1.05;;
6977;SDS011;3529;53.244;10.414;2022-07-19T10:19:41;0.63;;;0.63;;
6977;SDS011;3529;53.244;10.414;2022-07-19T10:22:09;1.30;;;1.20;;
6977;SDS011;3529;53.244;10.414;2022-07-19T10:24:47;0.90;;;0.90;;
6977;SDS011;3529;53.244;10.414;2022-07-19T10:30:14;1.85;;;1.75;;
6977;SDS011;3529;53.244;10.414;2022-07-19T10:32:39;0.90;;;0.90;;
6977;SDS011;3529;53.244;10.414;2022-07-19T10:40:41;0.88;;;0.88;;
6977;SDS011;3529;53.244;10.414;2022-07-19T10:43:11;0.60;;;0.60;;
6977;SDS011;3529;53.244;10.414;2022-07-19T10:45:38;1.33;;;1.13;;
6977;SDS011;3529;53.244;10.414;2022-07-19T10:48:07;0.80;;;0.80;;
6977;SDS011;3529;53.244;10.414;2022-07-19T10:50:44;0.80;;;0.80;;
6977;SDS011;3529;53.244;10.414;2022-07-19T10:53:10;0.70;;;0.70;;
6977;SDS011;3529;53.244;10.414;2022-07-19T10:59:02;0.75;;;0.75;;
6977;SDS011;3529;53.244;10.414;2022-07-19T11:01:38;0.77;;;0.77;;
6977;SDS011;3529;53.244;10.414;2022-07-19T11:04:29;1.10;;;1.05;;
6977;SDS011;3529;53.244;10.414;2022-07-19T11:07:12;1.55;;;1.35;;
6977;SDS011;3529;53.244;10.414;2022-07-19T11:09:49;0.93;;;0.88;;
6977;SDS011;3529;53.244;10.414;2022-07-19T11:12:24;0.60;;;0.60;;
6977;SDS011;3529;53.244;10.414;2022-07-19T11:14:52;0.93;;;0.90;;
6977;SDS011;3529;53.244;10.414;2022-07-19T11:17:18;0.70;;;0.70;;
6977;SDS011;3529;53.244;10.414;2022-07-19T11:20:04;0.93;;;0.93;;
6977;SDS011;3529;53.244;10.414;2022-07-19T11:22:33;0.70;;;0.70;;
6977;SDS011;3529;53.244;10.414;2022-07-19T11:25:02;0.70;;;0.70;;
6977;SDS011;3529;53.244;10.414;2022-07-19T11:27:29;0.95;;;0.60;;
6977;SDS011;3529;53.244;10.414;2022-07-19T11:29:56;0.90;;;0.90;;
6977;SDS011;3529;53.244;10.414;2022-07-19T11:32:23;0.93;;;0.90;;
6977;SDS011;3529;53.244;10.414;2022-07-19T11:34:59;0.80;;;0.80;;
6977;SDS011;3529;53.244;10.414;2022-07-19T11:37:31;0.88;;;0.80;;
6977;SDS011;3529;53.244;10.414;2022-07-19T11:40:05;0.90;;;0.90;;
6977;SDS011;3529;53.244;10.414;2022-07-19T11:42:39;0.55;;;0.45;;
6977;SDS011;3529;53.244;10.414;2022-07-19T11:45:15;0.88;;;0.88;;
6977;SDS011;3529;53.244;10.414;2022-07-19T11:47:46;0.90;;;0.90;;
6977;SDS011;3529;53.244;10.414;2022-07-19T11:50:14;0.80;;;0.80;;
6977;SDS011;3529;53.244;10.414;2022-07-19T11:52:57;0.70;;;0.70;;
6977;SDS011;3529;53.244;10.414;2022-07-19T11:55:25;0.63;;;0.63;;
6977;SDS011;3529;53.244;10.414;2022-07-19T11:58:04;0.70;;;0.70;;
6977;SDS011;3529;53.244;10.414;2022-07-19T12:00:32;1.25;;;0.70;;
6977;SDS011;3529;53.244;10.414;2022-07-19T12:03:03;0.70;;;0.70;;
6977;SDS011;3529;53.244;10.414;2022-07-19T12:05:32;0.90;;;0.90;;
6977;SDS011;3529;53.244;10.414;2022-07-19T12:08:01;2.03;;;1.67;;
6977;SDS011;3529;53.244;10.414;2022-07-19T12:10:35;0.38;;;0.38;;
6977;SDS011;3529;53.244;10.414;2022-07-19T12:13:10;0.50;;;0.50;;
6977;SDS011;3529;53.244;10.414;2022-07-19T12:15:44;0.65;;;0.65;;
6977;SDS011;3529;53.244;10.414;2022-07-19T12:18:10;1.08;;;0.73;;
6977;SDS011;3529;53.244;10.414;2022-07-19T12:20:37;0.60;;;0.60;;
6977;SDS011;3529;53.244;10.414;2022-07-19T12:23:13;0.60;;;0.60;;
6977;SDS011;3529;53.244;10.414;2022-07-19T12:25:41;0.70;;;0.70;;
6977;SDS011;3529;53.244;10.414;2022-07-19T12:28:07;0.77;;;0.77;;
6977;SDS011;3529;53.244;10.414;2022-07-19T12:30:33;0.57;;;0.57;;
6977;SDS011;3529;53.244;10.414;2022-07-19T12:33:06;0.60;;;0.60;;
6977;SDS011;3529;53.244;10.414;2022-07-19T12:35:42;0.65;;;0.65;;
6977;SDS011;3529;53.244;10.414;2022-07-19T12:38:09;0.50;;;0.50;;
6977;SDS011;3529;53.244;10.414;2022-07-19T12:40:36;0.80;;;0.80;;
6977;SDS011;3529;53.244;10.414;2022-07-19T12:43:04;0.65;;;0.65;;
6977;SDS011;3529;53.244;10.414;2022-07-19T12:45:31;0.50;;;0.50;;
6977;SDS011;3529;53.244;10.414;2022-07-19T12:47:58;0.63;;;0.63;;
6977;SDS011;3529;53.244;10.414;2022-07-19T12:50:28;0.50;;;0.50;;
6977;SDS011;3529;53.244;10.414;2022-07-19T12:53:02;0.60;;;0.60;;
6977;SDS011;3529;53.244;10.414;2022-07-19T12:55:30;0.80;;;0.80;;
6977;SDS011;3529;53.244;10.414;2022-07-19T12:57:57;0.60;;;0.60;;
6977;SDS011;3529;53.244;10.414;2022-07-19T13:00:24;0.88;;;0.80;;
6977;SDS011;3529;53.244;10.414;2022-07-19T13:02:51;0.60;;;0.60;;
6977;SDS011;3529;53.244;10.414;2022-07-19T13:05:18;0.60;;;0.60;;
6977;SDS011;3529;53.244;10.414;2022-07-19T13:07:45;0.60;;;0.57;;
6977;SDS011;3529;53.244;10.414;2022-07-19T13:10:11;0.80;;;0.80;;
6977;SDS011;3529;53.244;10.414;2022-07-19T13:12:37;0.73;;;0.73;;
6977;SDS011;3529;53.244;10.414;2022-07-19T13:15:03;0.95;;;0.70;;
6977;SDS011;3529;53.244;10.414;2022-07-19T13:17:30;0.68;;;0.68;;
6977;SDS011;3529;53.244;10.414;2022-07-19T13:19:56;1.42;;;1.38;;
6977;SDS011;3529;53.244;10.414;2022-07-19T13:22:22;1.15;;;1.00;;
6977;SDS011;3529;53.244;10.414;2022-07-19T13:24:47;0.70;;;0.70;;
6977;SDS011;3529;53.244;10.414;2022-07-19T13:27:13;0.75;;;0.75;;
6977;SDS011;3529;53.244;10.414;2022-07-19T13:29:40;0.45;;;0.45;;
6977;SDS011;3529;53.244;10.414;2022-07-19T13:32:06;0.98;;;0.68;;
6977;SDS011;3529;53.244;10.414;2022-07-19T13:34:33;0.70;;;0.70;;
6977;SDS011;3529;53.244;10.414;2022-07-19T13:36:59;1.00;;;1.00;;
6977;SDS011;3529;53.244;10.414;2022-07-19T13:39:24;0.82;;;0.82;;
6977;SDS011;3529;53.244;10.414;2022-07-19T13:41:51;1.00;;;1.00;;
6977;SDS011;3529;53.244;10.414;2022-07-19T13:44:17;1.20;;;0.90;;
6977;SDS011;3529;53.244;10.414;2022-07-19T13:46:42;0.60;;;0.60;;
6977;SDS011;3529;53.244;10.414;2022-07-19T13:49:08;0.70;;;0.70;;
6977;SDS011;3529;53.244;10.414;2022-07-19T13:51:34;0.60;;;0.60;;
6977;SDS011;3529;53.244;10.414;2022-07-19T13:53:59;0.88;;;0.88;;
6977;SDS011;3529;53.244;10.414;2022-07-19T13:56:25;0.68;;;0.68;;
6977;SDS011;3529;53.244;10.414;2022-07-19T13:58:50;0.50;;;0.50;;
6977;SDS011;3529;53.244;10.414;2022-07-19T14:01:17;0.80;;;0.80;;
6977;SDS011;3529;53.244;10.414;2022-07-19T14:03:42;1.30;;;1.30;;
6977;SDS011;3529;53.244;10.414;2022-07-19T14:06:08;0.82;;;0.80;;
6977;SDS011;3529;53.244;10.414;2022-07-19T14:08:34;0.60;;;0.60;;
6977;SDS011;3529;53.244;10.414;2022-07-19T14:11:00;1.50;;;1.35;;
6977;SDS011;3529;53.244;10.414;2022-07-19T14:13:26;0.80;;;0.80;;
6977;SDS011;3529;53.244;10.414;2022-07-19T14:15:53;0.50;;;0.50;;
6977;SDS011;3529;53.244;10.414;2022-07-19T14:18:19;0.90;;;0.90;;
6977;SDS011;3529;53.244;10.414;2022-07-19T14:20:45;0.95;;;0.95;;
6977;SDS011;3529;53.244;10.414;2022-07-19T14:23:11;0.70;;;0.70;;
6977;SDS011;3529;53.244;10.414;2022-07-19T14:25:38;0.63;;;0.63;;
6977;SDS011;3529;53.244;10.414;2022-07-19T14:28:05;1.25;;;1.05;;
6977;SDS011;3529;53.244;10.414;2022-07-19T14:30:31;0.73;;;0.73;;
6977;SDS011;3529;53.244;10.414;2022-07-19T14:32:57;0.65;;;0.65;;
6977;SDS011;3529;53.244;10.414;2022-07-19T14:35:22;0.63;;;0.63;;
6977;SDS011;3529;53.244;10.414;2022-07-19T14:37:48;0.82;;;0.82;;
6977;SDS011;3529;53.244;10.414;2022-07-19T14:40:14;0.60;;;0.60;;
6977;SDS011;3529;53.244;10.414;2022-07-19T14:42:40;3.97;;;0.63;;
6977;SDS011;3529;53.244;10.414;2022-07-19T14:45:06;0.60;;;0.60;;
6977;SDS011;3529;53.244;10.414;2022-07-19T14:47:33;0.90;;;0.90;;
6977;SDS011;3529;53.244;10.414;2022-07-19T14:50:00;1.15;;;1.00;;
6977;SDS011;3529;53.244;10.414;2022-07-19T14:52:27;0.50;;;0.50;;
6977;SDS011;3529;53.244;10.414;2022-07-19T14:54:53;0.60;;;0.60;;
6977;SDS011;3529;53.244;10.414;2022-07-19T14:57:19;0.50;;;0.50;;
6977;SDS011;3529;53.244;10.414;2022-07-19T14:59:45;0.95;;;0.95;;
6977;SDS011;3529;53.244;10.414;2022-07-19T15:02:10;0.50;;;0.50;;
6977;SDS011;3529;53.244;10.414;2022-07-19T15:04:36;0.80;;;0.80;;
6977;SDS011;3529;53.244;10.414;2022-07-19T15:07:02;0.63;;;0.63;;
6977;SDS011;3529;53.244;10.414;2022-07-19T15:09:28;0.77;;;0.70;;
6977;SDS011;3529;53.244;10.414;2022-07-19T15:11:54;0.90;;;0.90;;
6977;SDS011;3529;53.244;10.414;2022-07-19T15:14:24;1.33;;;1.08;;
6977;SDS011;3529;53.244;10.414;2022-07-19T15:16:53;1.00;;;1.00;;
6977;SDS011;3529;53.244;10.414;2022-07-19T15:19:19;1.00;;;1.00;;